Time;durP1;ratioP1;P1;durP2;ratioP2;P2;SDS_P1;SDS_P2;PMS_P1;PMS_P2;Temp;Humidity;BMP_temperature;BMP_pressure;BME280_temperature;BME280_humidity;BME280_pressure;Samples;Min_cycle;Max_cycle;Signal;HPM_P1;HPM_P2
2023/04/26 00:01:57;;;;;;;6.40;3.00;;;10.90;97.30;;;;;;6125591;23;20034;-69
2023/04/26 00:04:24;;;;;;;4.50;3.38;;;10.80;97.70;;;;;;6127229;23;20026;-69
2023/04/26 00:06:49;;;;;;;7.50;3.20;;;10.80;97.50;;;;;;6127246;23;20032;-69
2023/04/26 00:09:17;;;;;;;4.65;3.13;;;10.80;97.40;;;;;;6126875;23;20452;-69
2023/04/26 00:11:43;;;;;;;5.70;3.20;;;10.80;97.30;;;;;;6126796;23;20002;-69
2023/04/26 00:14:10;;;;;;;12.25;3.70;;;10.80;97.20;;;;;;6127014;23;20032;-69
2023/04/26 00:16:36;;;;;;;6.05;3.85;;;10.70;97.20;;;;;;6126766;23;20017;-69
2023/04/26 00:19:03;;;;;;;9.18;4.80;;;10.80;97.20;;;;;;6126866;23;20002;-69
2023/04/26 00:21:28;;;;;;;7.05;4.20;;;10.80;97.10;;;;;;6126543;23;20439;-69
2023/04/26 00:23:54;;;;;;;6.72;4.20;;;10.80;97.00;;;;;;6126621;23;20002;-69
2023/04/26 00:26:20;;;;;;;6.55;4.32;;;10.80;96.90;;;;;;6126578;23;20002;-69
2023/04/26 00:28:46;;;;;;;6.78;3.97;;;10.70;96.90;;;;;;6126720;23;20005;-69
2023/04/26 00:31:16;;;;;;;9.02;4.85;;;10.70;96.70;;;;;;6126525;23;20036;-69
2023/04/26 00:33:42;;;;;;;8.90;4.43;;;10.60;96.80;;;;;;6126976;23;20332;-69
2023/04/26 00:36:08;;;;;;;8.57;4.57;;;10.60;96.70;;;;;;6126692;23;20460;-69
2023/04/26 00:38:33;;;;;;;6.13;4.25;;;10.60;96.80;;;;;;6126493;23;20002;-69
2023/04/26 00:40:59;;;;;;;6.78;4.55;;;10.50;96.60;;;;;;6126431;23;20014;-69
2023/04/26 00:43:25;;;;;;;5.95;3.72;;;10.50;96.60;;;;;;6126016;23;19998;-70
2023/04/26 00:45:51;;;;;;;8.82;4.20;;;10.40;96.90;;;;;;6126382;23;20037;-69
2023/04/26 00:48:17;;;;;;;9.63;3.90;;;10.40;97.00;;;;;;6126621;23;20034;-70
2023/04/26 00:50:43;;;;;;;5.47;4.20;;;10.40;97.00;;;;;;6126580;23;20070;-69
2023/04/26 00:53:10;;;;;;;9.43;4.05;;;10.40;97.00;;;;;;6127042;23;20006;-69
2023/04/26 00:55:36;;;;;;;8.00;4.63;;;10.30;96.70;;;;;;6126517;23;20013;-69
2023/04/26 00:58:02;;;;;;;8.77;3.83;;;10.30;96.70;;;;;;6124455;23;20010;-69
2023/04/26 01:00:28;;;;;;;5.80;3.60;;;10.30;96.80;;;;;;6123407;23;20029;-69
2023/04/26 01:02:54;;;;;;;5.40;3.83;;;10.30;96.70;;;;;;6123304;23;20006;-69
2023/04/26 01:05:20;;;;;;;7.22;3.90;;;10.30;96.70;;;;;;6125212;23;20085;-69
2023/04/26 01:07:46;;;;;;;6.97;3.90;;;10.20;96.90;;;;;;6126255;23;20010;-69
2023/04/26 01:10:11;;;;;;;6.88;3.80;;;10.20;96.90;;;;;;6100502;23;20036;-69
2023/04/26 01:12:38;;;;;;;8.32;3.63;;;10.20;96.80;;;;;;6126167;23;20013;-69
2023/04/26 01:15:05;;;;;;;6.65;3.90;;;10.10;96.80;;;;;;6126230;23;19998;-69
2023/04/26 01:17:31;;;;;;;5.13;3.63;;;10.10;97.20;;;;;;6126121;23;20093;-69
2023/04/26 01:19:56;;;;;;;5.10;3.53;;;10.10;97.30;;;;;;6126407;23;20029;-70
2023/04/26 01:22:22;;;;;;;8.80;3.72;;;10.10;97.20;;;;;;6125958;23;20002;-69
2023/04/26 01:24:50;;;;;;;5.20;3.42;;;10.00;97.20;;;;;;6125979;23;20029;-69
2023/04/26 01:27:16;;;;;;;4.93;3.60;;;10.00;97.30;;;;;;6126456;23;20005;-69
2023/04/26 01:29:42;;;;;;;5.43;3.83;;;10.00;97.30;;;;;;6125900;23;20433;-69
2023/04/26 01:32:08;;;;;;;5.60;4.30;;;10.00;97.40;;;;;;6126202;23;20474;-69
2023/04/26 01:34:34;;;;;;;6.60;3.30;;;10.00;97.40;;;;;;6126295;23;19998;-69
2023/04/26 01:37:00;;;;;;;6.45;4.10;;;9.90;97.40;;;;;;6125451;23;20089;-69
2023/04/26 01:39:26;;;;;;;7.68;3.90;;;9.90;97.10;;;;;;6126096;23;20008;-69
2023/04/26 01:41:52;;;;;;;4.95;3.58;;;9.90;97.30;;;;;;6126112;23;20006;-69
2023/04/26 01:44:18;;;;;;;11.07;3.78;;;9.90;97.20;;;;;;6125780;23;20002;-69
2023/04/26 01:46:44;;;;;;;7.15;4.13;;;9.90;97.00;;;;;;6125936;23;20064;-69
2023/04/26 01:49:10;;;;;;;6.63;3.70;;;9.90;97.10;;;;;;6126122;23;19998;-69
2023/04/26 01:51:36;;;;;;;8.13;4.18;;;9.90;97.00;;;;;;6125956;23;20479;-69
2023/04/26 01:54:02;;;;;;;10.95;4.15;;;9.80;97.10;;;;;;6126206;23;19998;-69
2023/04/26 01:56:28;;;;;;;8.18;3.95;;;9.80;97.30;;;;;;6125997;23;20014;-69
2023/04/26 01:58:58;;;;;;;5.75;3.58;;;9.70;96.90;;;;;;6125824;23;20340;-69
2023/04/26 02:01:24;;;;;;;12.38;4.28;;;9.70;97.10;;;;;;6125455;23;20010;-69
2023/04/26 02:03:50;;;;;;;7.15;3.90;;;9.60;97.30;;;;;;6125878;23;20002;-70
2023/04/26 02:06:16;;;;;;;7.45;4.35;;;9.60;97.40;;;;;;6125741;23;20068;-69
2023/04/26 02:08:42;;;;;;;9.80;4.03;;;9.60;97.40;;;;;;6126147;23;20028;-69
2023/04/26 02:11:08;;;;;;;9.18;3.97;;;9.60;97.40;;;;;;6125843;23;20017;-70
2023/04/26 02:13:33;;;;;;;10.23;4.53;;;9.60;97.20;;;;;;6125906;23;19998;-69
2023/04/26 02:15:59;;;;;;;6.93;3.90;;;9.50;97.40;;;;;;6125835;23;20036;-69
2023/04/26 02:18:25;;;;;;;7.57;4.17;;;9.50;97.30;;;;;;6126117;23;20013;-69
2023/04/26 02:20:51;;;;;;;6.50;4.13;;;9.40;97.60;;;;;;6125794;23;20006;-69
2023/04/26 02:23:17;;;;;;;6.27;4.03;;;9.40;97.70;;;;;;6125443;23;20060;-69
2023/04/26 02:25:46;;;;;;;5.35;4.10;;;9.40;97.60;;;;;;6099962;23;20006;-69
2023/04/26 02:28:11;;;;;;;11.82;4.93;;;9.40;97.60;;;;;;6125991;23;19998;-69
2023/04/26 02:30:37;;;;;;;6.10;3.90;;;9.40;97.60;;;;;;6125950;23;20009;-69
2023/04/26 02:33:03;;;;;;;4.90;3.63;;;9.50;97.70;;;;;;6125888;23;20456;-69
2023/04/26 02:35:29;;;;;;;4.80;3.38;;;9.50;97.70;;;;;;6125771;23;20452;-69
2023/04/26 02:37:55;;;;;;;7.32;3.63;;;9.50;97.60;;;;;;6125816;23;20002;-69
2023/04/26 02:40:21;;;;;;;3.70;3.17;;;9.40;97.50;;;;;;6125611;23;20006;-69
2023/04/26 02:42:47;;;;;;;4.18;3.20;;;9.40;97.70;;;;;;6125934;23;20029;-69
2023/04/26 02:45:13;;;;;;;5.57;3.43;;;9.50;97.70;;;;;;6125966;23;20433;-69
2023/04/26 02:47:39;;;;;;;5.72;2.80;;;9.40;97.50;;;;;;6125984;23;20089;-69
2023/04/26 02:50:06;;;;;;;6.23;2.93;;;9.40;97.40;;;;;;6099984;23;20084;-69
2023/04/26 02:52:33;;;;;;;3.65;2.72;;;9.40;97.50;;;;;;6125685;23;20022;-69
2023/04/26 02:55:00;;;;;;;5.13;3.30;;;9.50;97.60;;;;;;6125891;23;19998;-69
2023/04/26 02:57:25;;;;;;;4.37;3.13;;;9.50;97.30;;;;;;6125965;23;20022;-69
2023/04/26 02:59:51;;;;;;;5.13;3.25;;;9.40;97.20;;;;;;6125522;23;20081;-69
2023/04/26 03:02:17;;;;;;;10.07;3.53;;;9.40;97.40;;;;;;6125745;23;20069;-69
2023/04/26 03:04:43;;;;;;;6.07;4.05;;;9.40;97.10;;;;;;6099985;23;20012;-69
2023/04/26 03:07:08;;;;;;;5.57;3.80;;;9.40;96.80;;;;;;6126310;23;20030;-69
2023/04/26 03:09:37;;;;;;;9.17;3.80;;;9.40;96.60;;;;;;6128099;23;20484;-69
2023/04/26 03:12:03;;;;;;;8.70;4.20;;;9.30;96.60;;;;;;6101563;23;20053;-69
2023/04/26 03:14:29;;;;;;;8.07;4.07;;;9.30;96.70;;;;;;6127790;23;20002;-69
2023/04/26 03:16:55;;;;;;;15.23;4.87;;;9.30;96.80;;;;;;6127484;23;20093;-69
2023/04/26 03:19:20;;;;;;;8.03;4.27;;;9.20;96.80;;;;;;6127477;23;20006;-69
2023/04/26 03:21:46;;;;;;;10.75;4.32;;;9.20;96.90;;;;;;6127794;23;20017;-69
2023/04/26 03:24:12;;;;;;;11.33;4.57;;;9.20;97.00;;;;;;6127185;23;20302;-69
2023/04/26 03:26:37;;;;;;;9.70;4.43;;;9.10;97.00;;;;;;6128175;23;20005;-69
2023/04/26 03:29:04;;;;;;;6.47;4.73;;;9.10;97.10;;;;;;6127424;23;20025;-69
2023/04/26 03:31:30;;;;;;;10.90;4.70;;;9.10;97.30;;;;;;6127508;23;20041;-69
2023/04/26 03:33:55;;;;;;;7.60;4.10;;;9.10;97.50;;;;;;6127138;23;20433;-69
2023/04/26 03:36:21;;;;;;;10.57;4.43;;;9.00;97.30;;;;;;6127453;23;20053;-69
2023/04/26 03:38:47;;;;;;;6.53;4.13;;;9.10;97.30;;;;;;6127520;23;20022;-69
2023/04/26 03:41:13;;;;;;;9.03;3.70;;;9.10;97.40;;;;;;6127709;23;20006;-69
2023/04/26 03:43:38;;;;;;;11.23;4.07;;;9.10;97.40;;;;;;6127316;23;20006;-69
2023/04/26 03:46:04;;;;;;;10.40;4.90;;;9.00;97.40;;;;;;6127303;23;20006;-69
2023/04/26 03:48:30;;;;;;;7.60;4.73;;;9.00;97.40;;;;;;6125568;23;20017;-69
2023/04/26 03:50:56;;;;;;;7.00;4.20;;;9.00;97.40;;;;;;6127258;23;20022;-69
2023/04/26 03:53:21;;;;;;;8.97;3.63;;;9.00;97.30;;;;;;6127114;23;19998;-69
2023/04/26 03:55:47;;;;;;;3.80;3.33;;;9.00;97.40;;;;;;6127179;23;20018;-69
2023/04/26 03:58:13;;;;;;;9.70;3.63;;;9.00;97.20;;;;;;6127318;23;19998;-69
2023/04/26 04:00:41;;;;;;;5.53;3.73;;;9.00;97.30;;;;;;6127247;23;20009;-69
2023/04/26 04:03:07;;;;;;;10.33;3.30;;;8.90;97.20;;;;;;6127474;23;19998;-69
2023/04/26 04:05:33;;;;;;;4.83;3.60;;;8.90;97.30;;;;;;6101449;23;20028;-69
2023/04/26 04:07:58;;;;;;;3.40;2.97;;;8.90;97.20;;;;;;6126997;23;20068;-69
2023/04/26 04:10:24;;;;;;;3.80;2.87;;;9.00;97.20;;;;;;6126652;23;20037;-69
2023/04/26 04:12:52;;;;;;;5.27;3.13;;;9.00;97.20;;;;;;6127220;23;20064;-69
2023/04/26 04:15:18;;;;;;;7.63;3.10;;;8.90;97.10;;;;;;6127025;23;20008;-69
2023/04/26 04:17:44;;;;;;;4.40;3.17;;;8.90;97.00;;;;;;6127021;23;20009;-69
2023/04/26 04:20:11;;;;;;;5.47;3.00;;;8.90;97.10;;;;;;6126542;23;20002;-69
2023/04/26 04:22:38;;;;;;;9.33;3.47;;;8.90;97.20;;;;;;6126870;23;20013;-69
2023/04/26 04:25:09;;;;;;;5.97;3.30;;;8.90;97.30;;;;;;6127172;23;20030;-69
2023/04/26 04:27:37;;;;;;;6.30;3.80;;;8.90;97.40;;;;;;6100879;23;20032;-69
2023/04/26 04:30:08;;;;;;;4.90;3.80;;;8.80;97.40;;;;;;6126845;23;20002;-69
2023/04/26 04:32:35;;;;;;;5.00;3.57;;;8.80;97.60;;;;;;6127012;23;20440;-69
2023/04/26 04:35:01;;;;;;;7.23;4.03;;;8.80;97.60;;;;;;6126684;23;19998;-69
2023/04/26 04:37:27;;;;;;;5.47;4.00;;;8.80;97.60;;;;;;6126546;23;20014;-69
2023/04/26 04:39:54;;;;;;;7.37;4.53;;;8.80;97.70;;;;;;6126740;23;20001;-69
2023/04/26 04:42:20;;;;;;;7.57;4.07;;;8.80;97.70;;;;;;6126832;23;20021;-69
2023/04/26 04:44:46;;;;;;;6.57;3.93;;;8.80;97.80;;;;;;6126759;23;20368;-69
2023/04/26 04:47:12;;;;;;;9.20;5.10;;;8.90;97.70;;;;;;6126727;23;20006;-69
2023/04/26 04:49:38;;;;;;;5.60;4.43;;;8.90;97.90;;;;;;6126790;23;20090;-69
2023/04/26 04:52:05;;;;;;;6.07;3.70;;;8.90;97.40;;;;;;6125498;23;20021;-69
2023/04/26 04:54:31;;;;;;;15.73;4.43;;;8.80;97.50;;;;;;6125213;23;20049;-69
2023/04/26 04:56:57;;;;;;;8.63;4.40;;;8.70;97.90;;;;;;6125261;23;20068;-69
2023/04/26 04:59:23;;;;;;;5.90;3.93;;;8.60;98.20;;;;;;6125392;23;20030;-69
2023/04/26 05:01:49;;;;;;;7.23;3.80;;;8.60;98.40;;;;;;6125097;23;20013;-69
2023/04/26 05:04:16;;;;;;;6.57;3.60;;;8.60;98.80;;;;;;6125519;23;20021;-69
2023/04/26 05:06:42;;;;;;;6.33;2.97;;;8.70;99.00;;;;;;6125339;23;20037;-69
2023/04/26 05:09:09;;;;;;;4.47;2.93;;;8.80;99.00;;;;;;6124939;23;20006;-69
2023/04/26 05:11:35;;;;;;;5.23;2.40;;;8.80;99.00;;;;;;6124953;23;20010;-69
2023/04/26 05:14:01;;;;;;;6.43;2.20;;;8.90;98.80;;;;;;6125098;23;20073;-69
2023/04/26 05:16:27;;;;;;;4.67;2.20;;;8.90;98.50;;;;;;6125192;23;20009;-69
2023/04/26 05:18:53;;;;;;;7.70;2.90;;;9.00;98.10;;;;;;6124976;23;20002;-69
2023/04/26 05:21:19;;;;;;;5.40;2.27;;;9.00;98.20;;;;;;6125665;23;20013;-69
2023/04/26 05:23:45;;;;;;;6.70;2.07;;;9.00;98.10;;;;;;6125442;23;20080;-69
2023/04/26 05:26:14;;;;;;;3.53;1.90;;;9.10;98.20;;;;;;6125320;23;20033;-69
2023/04/26 05:28:40;;;;;;;6.27;1.90;;;9.10;98.10;;;;;;6124632;23;20009;-69
2023/04/26 05:31:06;;;;;;;4.70;2.10;;;9.10;98.40;;;;;;6124844;23;20428;-69
2023/04/26 05:33:31;;;;;;;5.40;1.90;;;9.10;98.70;;;;;;6125186;23;19998;-69
2023/04/26 05:35:58;;;;;;;7.27;2.23;;;9.20;98.60;;;;;;6124765;23;20010;-68
2023/04/26 05:38:24;;;;;;;6.33;1.90;;;9.40;98.40;;;;;;6125519;23;20002;-69
2023/04/26 05:40:50;;;;;;;6.80;2.43;;;9.50;98.10;;;;;;6125232;23;20009;-69
2023/04/26 05:43:16;;;;;;;6.87;2.90;;;9.50;98.00;;;;;;6124970;23;20010;-69
2023/04/26 05:45:52;;;;;;;5.70;2.87;;;9.50;97.90;;;;;;6125040;23;20002;-70
2023/04/26 05:48:19;;;;;;;4.10;2.40;;;9.60;97.80;;;;;;6125147;23;20476;-69
2023/04/26 05:50:45;;;;;;;6.93;2.80;;;9.60;97.60;;;;;;6070985;23;1273701;-69
2023/04/26 05:53:10;;;;;;;3.90;2.60;;;9.60;97.70;;;;;;6126115;23;20009;-69
2023/04/26 05:55:36;;;;;;;10.83;2.63;;;9.70;97.80;;;;;;6126341;23;20081;-70
2023/04/26 05:58:02;;;;;;;6.37;2.63;;;9.80;98.10;;;;;;6126497;23;20037;-69
2023/04/26 06:00:27;;;;;;;5.60;2.42;;;9.90;98.10;;;;;;6125059;23;20044;-68
2023/04/26 06:02:53;;;;;;;5.40;2.10;;;9.90;98.10;;;;;;6125699;23;20052;-70
2023/04/26 06:05:19;;;;;;;9.07;2.80;;;10.00;98.10;;;;;;6125766;23;20076;-73
2023/04/26 06:07:45;;;;;;;7.83;2.53;;;10.00;97.90;;;;;;6125990;23;20076;-69
2023/04/26 06:10:12;;;;;;;5.37;2.50;;;10.10;97.60;;;;;;6125859;23;20029;-70
2023/04/26 06:12:38;;;;;;;4.30;2.30;;;10.20;97.10;;;;;;6125509;23;20452;-70
2023/04/26 06:15:04;;;;;;;5.63;2.35;;;10.20;97.00;;;;;;6125844;23;20002;-69
2023/04/26 06:17:30;;;;;;;5.00;2.05;;;10.30;96.90;;;;;;6125775;23;20010;-69
2023/04/26 06:19:56;;;;;;;3.47;1.85;;;10.30;96.70;;;;;;6099762;23;20013;-68
2023/04/26 06:22:21;;;;;;;4.05;2.33;;;10.30;96.50;;;;;;6125913;23;20006;-68
2023/04/26 06:24:47;;;;;;;3.20;2.15;;;10.40;96.40;;;;;;6125835;23;19998;-69
2023/04/26 06:27:13;;;;;;;5.20;1.60;;;10.40;96.70;;;;;;6125639;23;20016;-69
2023/04/26 06:29:40;;;;;;;4.40;1.90;;;10.40;96.20;;;;;;6126073;23;20073;-69
2023/04/26 06:32:06;;;;;;;8.57;1.77;;;10.50;96.00;;;;;;6125012;23;20002;-70
2023/04/26 06:34:31;;;;;;;4.28;1.73;;;10.60;96.30;;;;;;6125818;23;20028;-69
2023/04/26 06:36:57;;;;;;;4.35;1.60;;;10.60;96.20;;;;;;6125510;23;20014;-69
2023/04/26 06:39:23;;;;;;;3.90;1.52;;;10.70;96.60;;;;;;6125735;23;19998;-69
2023/04/26 06:41:48;;;;;;;3.38;1.20;;;10.80;96.30;;;;;;6126385;23;20006;-69
2023/04/26 06:44:14;;;;;;;5.53;1.40;;;10.80;96.20;;;;;;6127405;23;20436;-69
2023/04/26 06:46:40;;;;;;;3.70;1.50;;;10.90;96.40;;;;;;6127356;23;20009;-65
2023/04/26 06:49:06;;;;;;;3.47;1.63;;;10.90;96.30;;;;;;6127545;23;20010;-64
2023/04/26 06:51:31;;;;;;;3.30;1.70;;;10.90;96.00;;;;;;6127313;23;20029;-64
2023/04/26 06:54:00;;;;;;;5.22;1.33;;;11.00;96.10;;;;;;6127427;23;19998;-64
2023/04/26 06:56:26;;;;;;;4.38;1.65;;;11.10;96.00;;;;;;6127547;23;20010;-64
2023/04/26 06:59:02;;;;;;;4.88;1.65;;;11.10;96.00;;;;;;6127237;23;20002;-64
2023/04/26 07:01:32;;;;;;;4.25;1.60;;;11.10;95.90;;;;;;6127315;23;20008;-64
2023/04/26 07:04:00;;;;;;;3.13;1.58;;;11.20;95.80;;;;;;6127580;23;20002;-64
2023/04/26 07:06:26;;;;;;;3.20;1.38;;;11.20;96.00;;;;;;6127753;23;20002;-64
2023/04/26 07:08:52;;;;;;;4.20;1.40;;;11.30;96.00;;;;;;6127569;23;20005;-64
2023/04/26 07:11:18;;;;;;;4.95;1.50;;;11.40;96.00;;;;;;6127658;23;20002;-64
2023/04/26 07:13:44;;;;;;;3.67;1.55;;;11.40;95.90;;;;;;6127670;23;20477;-64
2023/04/26 07:16:10;;;;;;;7.25;1.70;;;11.50;95.60;;;;;;6127547;23;20010;-64
2023/04/26 07:18:35;;;;;;;1.70;1.20;;;11.60;95.40;;;;;;6127522;23;20009;-64
2023/04/26 07:21:01;;;;;;;4.45;1.20;;;11.60;95.10;;;;;;6127803;23;20002;-64
2023/04/26 07:23:28;;;;;;;3.67;1.33;;;11.70;94.60;;;;;;6100185;23;20092;-64
2023/04/26 07:25:54;;;;;;;1.95;1.10;;;11.70;94.40;;;;;;6126140;23;20002;-64
2023/04/26 07:28:20;;;;;;;2.50;1.08;;;11.80;94.00;;;;;;6126037;23;20373;-64
2023/04/26 07:30:45;;;;;;;3.90;0.80;;;11.80;93.90;;;;;;6127771;23;20335;-64
2023/04/26 07:33:11;;;;;;;1.80;1.00;;;11.90;93.20;;;;;;6127672;23;20002;-64
2023/04/26 07:35:37;;;;;;;3.47;0.95;;;12.00;92.80;;;;;;6127313;23;20002;-64
2023/04/26 07:38:03;;;;;;;4.90;1.08;;;12.10;93.10;;;;;;6126822;23;20033;-64
2023/04/26 07:40:30;;;;;;;1.67;0.77;;;12.10;93.30;;;;;;6126560;23;20355;-65
2023/04/26 07:42:55;;;;;;;4.18;0.90;;;12.20;93.20;;;;;;6127012;23;20009;-64
2023/04/26 07:45:21;;;;;;;2.22;0.80;;;12.30;91.60;;;;;;6127603;23;20356;-65
2023/04/26 07:47:47;;;;;;;4.20;0.60;;;12.40;90.20;;;;;;6127278;23;20049;-64
2023/04/26 07:50:13;;;;;;;2.78;0.73;;;12.40;89.30;;;;;;6127110;23;20002;-64
2023/04/26 07:52:39;;;;;;;2.45;0.60;;;12.50;89.20;;;;;;6126944;23;20080;-64
2023/04/26 07:55:05;;;;;;;1.63;0.68;;;12.60;88.40;;;;;;6127341;23;20049;-65
2023/04/26 07:57:31;;;;;;;1.70;0.88;;;12.70;88.40;;;;;;6127272;23;20010;-65
2023/04/26 07:59:57;;;;;;;1.75;0.70;;;12.70;85.80;;;;;;6126909;23;19998;-66
2023/04/26 08:02:22;;;;;;;2.85;0.90;;;12.80;85.30;;;;;;6127087;23;20320;-65
2023/04/26 08:04:51;;;;;;;1.13;0.80;;;12.80;86.00;;;;;;6127213;23;20008;-66
2023/04/26 08:07:17;;;;;;;2.55;1.00;;;12.90;85.40;;;;;;6127248;23;20006;-64
2023/04/26 08:09:43;;;;;;;1.02;0.68;;;12.90;85.60;;;;;;6127072;23;19998;-65
2023/04/26 08:12:10;;;;;;;2.85;0.65;;;13.00;84.60;;;;;;6126854;23;20061;-65
2023/04/26 08:14:37;;;;;;;1.65;0.57;;;13.10;86.40;;;;;;6126614;23;19998;-65
2023/04/26 08:17:03;;;;;;;4.93;0.93;;;13.20;84.70;;;;;;6127067;23;20360;-65
2023/04/26 08:19:31;;;;;;;1.48;0.68;;;13.20;81.50;;;;;;6126979;23;20013;-65
2023/04/26 08:21:57;;;;;;;1.00;0.50;;;13.30;77.40;;;;;;6126899;23;20002;-65
2023/04/26 08:24:23;;;;;;;1.17;0.60;;;13.40;80.90;;;;;;6126269;23;20008;-65
2023/04/26 08:26:48;;;;;;;2.17;0.70;;;13.40;81.20;;;;;;6100529;23;20016;-65
2023/04/26 08:29:15;;;;;;;1.38;0.60;;;13.50;76.30;;;;;;6125526;23;20036;-66
2023/04/26 08:31:41;;;;;;;1.23;0.55;;;13.60;75.50;;;;;;6125518;23;20005;-65
2023/04/26 08:34:12;;;;;;;1.98;0.60;;;13.70;71.50;;;;;;6126078;23;20124;-66
2023/04/26 08:36:38;;;;;;;0.45;0.32;;;13.70;73.90;;;;;;6124700;23;20029;-65
2023/04/26 08:39:04;;;;;;;0.68;0.30;;;13.80;73.00;;;;;;6126272;23;20425;-65
2023/04/26 08:41:41;;;;;;;0.50;0.50;;;13.90;69.60;;;;;;6126655;23;20012;-64
2023/04/26 08:44:07;;;;;;;6.97;2.58;;;13.90;73.50;;;;;;6126451;23;20002;-65
2023/04/26 08:46:43;;;;;;;5.55;2.90;;;14.00;73.20;;;;;;6126694;23;20448;-65
2023/04/26 08:49:24;;;;;;;2.20;0.43;;;14.10;70.60;;;;;;6126746;23;20040;-65
2023/04/26 08:51:51;;;;;;;1.30;0.45;;;14.20;68.70;;;;;;6126630;23;20101;-64
2023/04/26 08:54:19;;;;;;;2.05;0.50;;;14.20;68.00;;;;;;6126595;23;20333;-66
2023/04/26 08:56:46;;;;;;;1.10;0.80;;;14.30;69.10;;;;;;6126540;23;20010;-65
2023/04/26 08:59:12;;;;;;;4.60;0.60;;;14.40;69.70;;;;;;6126540;23;20014;-65
2023/04/26 09:01:43;;;;;;;1.42;0.57;;;14.40;70.60;;;;;;6125601;23;20018;-65
2023/04/26 09:04:09;;;;;;;1.90;0.50;;;14.50;67.30;;;;;;6126673;23;20036;-64
2023/04/26 09:06:36;;;;;;;0.60;0.40;;;14.60;68.00;;;;;;6126567;23;20050;-65
2023/04/26 09:09:06;;;;;;;0.70;0.50;;;14.60;66.90;;;;;;6126327;23;20069;-66
2023/04/26 09:11:58;;;;;;;0.85;0.50;;;14.70;66.60;;;;;;6126817;23;20009;-65
2023/04/26 09:14:25;;;;;;;2.28;0.43;;;14.80;66.00;;;;;;6126604;23;20006;-64
2023/04/26 09:16:52;;;;;;;0.40;0.30;;;14.90;64.90;;;;;;6125996;23;20514;-65
2023/04/26 09:19:33;;;;;;;2.53;0.70;;;14.90;62.90;;;;;;6126878;23;20301;-65
2023/04/26 09:21:59;;;;;;;1.80;0.60;;;15.00;66.10;;;;;;6126353;23;20436;-64
2023/04/26 09:24:25;;;;;;;0.52;0.52;;;15.10;62.50;;;;;;6126332;23;20045;-64
2023/04/26 09:27:02;;;;;;;0.65;0.50;;;15.10;64.20;;;;;;6126341;23;20381;-64
2023/04/26 09:29:27;;;;;;;1.20;0.90;;;15.20;65.90;;;;;;6126523;23;19998;-65
2023/04/26 09:31:53;;;;;;;3.15;0.70;;;15.30;65.70;;;;;;6126168;23;20077;-65
2023/04/26 09:34:19;;;;;;;1.65;0.57;;;15.30;64.00;;;;;;6126357;23;20073;-65
2023/04/26 09:36:48;;;;;;;0.68;0.55;;;15.40;63.00;;;;;;6126381;23;20077;-65
2023/04/26 09:39:14;;;;;;;0.75;0.50;;;15.40;62.00;;;;;;6126178;23;19998;-65
2023/04/26 09:41:44;;;;;;;1.98;0.60;;;15.50;62.10;;;;;;6126366;23;20092;-64
2023/04/26 09:44:23;;;;;;;0.55;0.40;;;15.50;62.20;;;;;;6126028;23;20002;-64
2023/04/26 09:47:09;;;;;;;0.50;0.50;;;15.60;60.90;;;;;;6126541;23;20443;-66
2023/04/26 09:49:53;;;;;;;0.70;0.43;;;15.60;58.50;;;;;;6126618;23;20392;-64
2023/04/26 09:52:19;;;;;;;0.75;0.50;;;15.70;61.80;;;;;;6126268;23;20471;-64
2023/04/26 09:54:52;;;;;;;1.17;0.50;;;15.80;61.80;;;;;;6125953;23;20005;-64
2023/04/26 09:57:20;;;;;;;1.17;0.43;;;15.80;62.10;;;;;;6126103;23;20010;-64
2023/04/26 09:59:48;;;;;;;2.67;0.60;;;15.90;61.10;;;;;;6126394;23;20340;-64
2023/04/26 10:02:17;;;;;;;2.75;0.63;;;16.00;61.70;;;;;;6126377;23;20014;-64
2023/04/26 10:04:48;;;;;;;1.00;0.70;;;16.10;61.70;;;;;;6125953;23;19998;-64
2023/04/26 10:07:15;;;;;;;1.35;0.55;;;16.10;61.30;;;;;;6125903;23;19998;-64
2023/04/26 10:09:41;;;;;;;0.70;0.50;;;16.20;59.90;;;;;;6126026;23;20041;-65
2023/04/26 10:12:11;;;;;;;1.90;0.50;;;16.20;59.80;;;;;;6125942;23;20013;-64
2023/04/26 10:14:37;;;;;;;1.77;0.43;;;16.30;61.60;;;;;;6126393;23;20017;-64
2023/04/26 10:17:04;;;;;;;0.77;0.40;;;16.40;60.20;;;;;;6125947;23;20093;-64
2023/04/26 10:19:32;;;;;;;0.85;0.30;;;16.40;56.10;;;;;;6126365;23;20017;-64
2023/04/26 10:22:09;;;;;;;0.50;0.40;;;16.50;55.90;;;;;;6125788;23;20013;-64
2023/04/26 10:24:36;;;;;;;0.95;0.30;;;16.50;56.90;;;;;;6126384;23;20081;-65
2023/04/26 10:27:03;;;;;;;0.52;0.30;;;16.60;56.00;;;;;;6126348;23;20314;-65
2023/04/26 10:29:53;;;;;;;0.70;0.40;;;16.70;55.30;;;;;;6126140;23;20006;-64
2023/04/26 10:32:22;;;;;;;1.00;0.30;;;16.70;54.40;;;;;;6126057;23;20398;-65
2023/04/26 10:35:11;;;;;;;1.85;0.40;;;16.80;55.60;;;;;;6126377;23;20010;-65
2023/04/26 10:37:57;;;;;;;0.30;0.30;;;16.90;54.90;;;;;;6126116;23;20044;-65
2023/04/26 10:40:25;;;;;;;0.60;0.30;;;16.90;52.20;;;;;;6125607;23;20009;-65
2023/04/26 10:43:13;;;;;;;0.52;0.40;;;17.00;53.60;;;;;;6125704;23;20036;-64
2023/04/26 10:45:46;;;;;;;1.30;0.45;;;17.00;52.30;;;;;;6125743;23;19999;-65
2023/04/26 10:48:17;;;;;;;;;;;17.10;56.10;;;;;;6126058;23;20433;-64
2023/04/26 10:51:03;;;;;;;0.75;0.40;;;17.30;53.80;;;;;;6125781;23;20339;-65
2023/04/26 10:53:44;;;;;;;0.70;0.50;;;17.30;50.60;;;;;;6125760;23;20464;-64
2023/04/26 10:56:10;;;;;;;0.40;0.40;;;17.30;54.20;;;;;;6125959;23;20025;-64
2023/04/26 10:58:40;;;;;;;1.02;0.50;;;17.40;55.20;;;;;;6126411;23;20001;-64
2023/04/26 11:01:12;;;;;;;0.77;0.50;;;17.50;53.90;;;;;;6099912;23;20351;-65
2023/04/26 11:03:41;;;;;;;;;;;17.50;52.80;;;;;;6126220;23;20061;-66
2023/04/26 11:06:08;;;;;;;0.57;0.30;;;17.60;53.80;;;;;;6125830;23;20307;-65
2023/04/26 11:08:35;;;;;;;1.10;0.40;;;17.70;54.60;;;;;;6125668;23;20002;-64
2023/04/26 11:11:01;;;;;;;0.80;0.40;;;17.80;52.30;;;;;;6125650;23;20009;-65
2023/04/26 11:13:30;;;;;;;0.80;0.35;;;17.80;54.70;;;;;;6125696;23;20002;-65
2023/04/26 11:16:04;;;;;;;1.20;0.40;;;18.00;53.40;;;;;;6125567;23;20420;-65
2023/04/26 11:18:35;;;;;;;1.13;0.50;;;18.00;52.20;;;;;;6125713;23;20008;-65
2023/04/26 11:21:01;;;;;;;1.52;0.30;;;18.10;49.40;;;;;;6125791;23;20429;-65
2023/04/26 11:23:28;;;;;;;0.88;0.50;;;18.10;51.10;;;;;;6125408;23;20484;-65
2023/04/26 11:25:58;;;;;;;0.47;0.40;;;18.20;51.20;;;;;;6125406;23;20006;-65
2023/04/26 11:28:24;;;;;;;0.57;0.38;;;18.20;51.80;;;;;;6125726;23;20014;-65
2023/04/26 11:30:50;;;;;;;1.83;0.40;;;18.30;51.80;;;;;;6127380;23;20036;-65
2023/04/26 11:33:18;;;;;;;1.42;0.40;;;18.40;50.70;;;;;;6101093;23;20013;-66
2023/04/26 11:35:46;;;;;;;1.15;0.40;;;18.30;50.80;;;;;;6127051;23;20004;-63
2023/04/26 11:38:13;;;;;;;0.57;0.40;;;18.40;50.70;;;;;;6126783;23;20009;-65
2023/04/26 11:40:39;;;;;;;1.00;0.45;;;18.50;49.60;;;;;;6127289;23;20069;-65
2023/04/26 11:43:05;;;;;;;0.30;0.30;;;18.50;50.20;;;;;;6127065;23;20010;-65
2023/04/26 11:45:35;;;;;;;1.48;0.40;;;18.50;50.70;;;;;;6127405;23;20005;-65
2023/04/26 11:48:09;;;;;;;1.08;0.60;;;18.40;49.40;;;;;;6127255;23;20020;-65
2023/04/26 11:50:36;;;;;;;1.75;0.55;;;18.30;49.30;;;;;;6127331;23;20089;-65
2023/04/26 11:53:05;;;;;;;2.88;0.73;;;18.20;49.40;;;;;;6127362;23;20345;-65
2023/04/26 11:55:33;;;;;;;1.10;0.50;;;18.00;47.80;;;;;;6126685;23;20002;-65
2023/04/26 11:58:00;;;;;;;1.52;0.45;;;17.90;49.40;;;;;;6126629;23;20001;-65
2023/04/26 12:00:26;;;;;;;2.53;0.40;;;17.80;50.50;;;;;;6126572;23;20303;-65
2023/04/26 12:02:54;;;;;;;0.60;0.50;;;17.70;50.70;;;;;;6126980;23;20017;-65
2023/04/26 12:05:29;;;;;;;4.40;0.52;;;17.60;49.70;;;;;;6126592;23;20417;-64
2023/04/26 12:07:59;;;;;;;1.30;0.50;;;17.60;51.20;;;;;;6126897;23;20089;-64
2023/04/26 12:10:30;;;;;;;1.23;0.55;;;17.50;49.10;;;;;;6126910;23;20002;-65
2023/04/26 12:12:58;;;;;;;1.58;0.50;;;17.40;52.20;;;;;;6101057;23;20014;-65
2023/04/26 12:15:33;;;;;;;1.67;0.50;;;17.40;52.70;;;;;;6126970;23;20473;-65
2023/04/26 12:18:07;;;;;;;3.47;0.73;;;17.40;53.10;;;;;;6126863;23;20014;-64
2023/04/26 12:20:35;;;;;;;0.75;0.70;;;17.50;52.10;;;;;;6100593;23;20006;-65
2023/04/26 12:23:10;;;;;;;1.10;0.50;;;17.50;52.90;;;;;;6126822;23;20012;-65
2023/04/26 12:25:38;;;;;;;4.57;0.70;;;17.60;52.20;;;;;;6127132;23;19998;-64
2023/04/26 12:28:11;;;;;;;1.38;0.80;;;17.70;53.70;;;;;;6126977;23;20429;-64
2023/04/26 12:30:38;;;;;;;4.60;0.98;;;17.80;51.80;;;;;;6126825;23;20096;-65
2023/04/26 12:33:05;;;;;;;1.08;0.90;;;17.80;53.40;;;;;;6126465;23;20009;-65
2023/04/26 12:35:31;;;;;;;1.00;0.47;;;17.80;53.70;;;;;;6126942;23;20442;-66
2023/04/26 12:37:59;;;;;;;1.45;0.80;;;17.80;55.90;;;;;;6126299;23;20017;-65
2023/04/26 12:40:28;;;;;;;1.98;0.98;;;17.90;58.20;;;;;;6125565;23;20413;-65
2023/04/26 12:42:55;;;;;;;2.45;0.98;;;18.10;54.70;;;;;;6125766;23;20057;-65
2023/04/26 12:45:22;;;;;;;1.92;0.90;;;18.10;56.60;;;;;;6126194;23;20068;-67
2023/04/26 12:47:48;;;;;;;2.38;1.00;;;18.10;54.70;;;;;;6126191;23;20320;-65
2023/04/26 12:50:15;;;;;;;2.65;0.70;;;18.10;53.70;;;;;;6126265;23;20010;-66
2023/04/26 12:52:42;;;;;;;3.45;0.90;;;18.20;54.80;;;;;;6126441;23;20009;-66